createdAt,value
2023-10-13T00:01:08.185Z,17.85
2023-10-13T00:11:14.252Z,17.78
2023-10-13T00:21:21.018Z,17.85
2023-10-13T00:31:23.057Z,17.81
2023-10-13T00:41:44.478Z,17.77
2023-10-13T00:51:48.824Z,17.84
2023-10-13T01:01:55.935Z,17.85
2023-10-13T01:11:57.558Z,17.77
2023-10-13T01:22:05.011Z,17.85
2023-10-13T01:32:06.703Z,17.79
2023-10-13T01:42:08.165Z,17.83
2023-10-13T01:52:13.322Z,17.87
2023-10-13T02:02:15.762Z,17.85
2023-10-13T02:12:17.309Z,17.87
2023-10-13T02:22:33.040Z,17.85
2023-10-13T02:32:41.440Z,17.82
2023-10-13T02:42:42.870Z,17.80
2023-10-13T02:52:49.069Z,17.80
2023-10-13T03:02:59.423Z,17.81
2023-10-13T03:13:01.121Z,17.81
2023-10-13T03:23:10.470Z,17.83
2023-10-13T03:33:26.464Z,17.80
2023-10-13T03:43:30.965Z,17.78
2023-10-13T03:53:36.786Z,17.76
2023-10-13T04:03:38.723Z,17.74
2023-10-13T04:13:58.743Z,17.73
2023-10-13T04:24:18.195Z,17.73
2023-10-13T04:34:28.971Z,17.72
2023-10-13T04:44:42.317Z,17.74
2023-10-13T04:55:10.990Z,17.75
2023-10-13T05:05:14.698Z,17.75
2023-10-13T05:15:36.435Z,17.76
2023-10-13T05:25:57.445Z,17.73
2023-10-13T05:36:17.274Z,17.77
2023-10-13T05:46:36.612Z,17.79
2023-10-13T05:56:56.514Z,17.88
2023-10-13T06:07:16.272Z,17.85
2023-10-13T06:17:36.324Z,17.79
2023-10-13T06:27:56.253Z,17.94
2023-10-13T06:38:01.645Z,17.93
2023-10-13T06:48:03.307Z,17.93
2023-10-13T06:58:07.563Z,18.00
2023-10-13T07:08:10.108Z,18.13
2023-10-13T07:18:23.974Z,18.22
2023-10-13T07:28:25.587Z,18.31
2023-10-13T07:38:31.706Z,18.35
2023-10-13T07:48:34.525Z,18.50
2023-10-13T07:58:53.672Z,18.76
2023-10-13T08:08:56.056Z,18.93
2023-10-13T08:18:57.666Z,19.06
2023-10-13T08:29:22.122Z,19.36
2023-10-13T08:39:44.144Z,19.69
2023-10-13T08:49:53.499Z,19.84
2023-10-13T08:59:55.112Z,19.99
2023-10-13T09:09:58.471Z,20.17
2023-10-13T09:20:21.964Z,20.21
2023-10-13T09:30:24.894Z,20.41
2023-10-13T09:40:26.660Z,20.63
2023-10-13T09:50:34.812Z,20.81
2023-10-13T10:00:43.765Z,21.09
2023-10-13T10:10:57.891Z,21.23
2023-10-13T10:21:08.921Z,21.39
2023-10-13T10:31:17.763Z,21.28
2023-10-13T10:41:27.210Z,21.35
2023-10-13T10:51:32.737Z,21.47
2023-10-13T11:01:47.898Z,21.51
2023-10-13T11:11:53.695Z,21.81
2023-10-13T11:21:56.793Z,21.74
2023-10-13T11:32:00.832Z,22.01
2023-10-13T11:42:02.236Z,22.21
2023-10-13T11:52:24.380Z,22.34
2023-10-13T12:02:26.126Z,22.24
2023-10-13T12:12:29.102Z,22.31
2023-10-13T12:22:36.677Z,22.28
2023-10-13T12:32:38.259Z,22.50
2023-10-13T12:42:58.137Z,22.40
2023-10-13T12:53:00.909Z,22.67
2023-10-13T13:03:12.218Z,22.36
2023-10-13T13:13:14.894Z,22.52
2023-10-13T13:23:18.712Z,22.60
2023-10-13T13:33:24.904Z,22.67
2023-10-13T13:43:39.511Z,22.72
2023-10-13T13:53:49.411Z,22.62
2023-10-13T14:03:51.838Z,22.56
2023-10-13T14:13:57.070Z,22.63
2023-10-13T14:24:01.731Z,22.56
2023-10-13T14:34:03.142Z,22.48
2023-10-13T14:44:08.180Z,22.40
2023-10-13T14:54:09.718Z,22.44
2023-10-13T15:04:11.270Z,22.36
2023-10-13T15:14:14.362Z,22.24
2023-10-13T15:24:25.831Z,22.21
2023-10-13T15:34:29.690Z,22.05
2023-10-13T15:44:35.373Z,21.98
2023-10-13T15:54:36.964Z,21.86
2023-10-13T16:04:38.455Z,21.80
2023-10-13T16:14:41.145Z,21.74
2023-10-13T16:24:42.641Z,21.67
2023-10-13T16:34:44.088Z,21.63
2023-10-13T16:44:45.626Z,21.57
2023-10-13T16:54:47.090Z,21.54
2023-10-13T17:04:48.539Z,21.41
2023-10-13T17:14:51.443Z,21.21
2023-10-13T17:24:53.479Z,20.95
2023-10-13T17:34:54.922Z,20.59
2023-10-13T17:44:56.576Z,20.59
2023-10-13T17:54:58.015Z,20.44
2023-10-13T18:05:01.225Z,20.17
2023-10-13T18:15:02.815Z,19.95
2023-10-13T18:25:05.628Z,19.91
2023-10-13T18:35:09.649Z,19.91
2023-10-13T18:45:20.809Z,19.80
2023-10-13T18:55:22.238Z,19.79
2023-10-13T19:05:23.693Z,19.76
2023-10-13T19:15:27.777Z,19.71
2023-10-13T19:25:35.338Z,19.71
2023-10-13T19:35:43.504Z,19.69
2023-10-13T19:45:45.043Z,19.68
2023-10-13T19:55:47.201Z,19.50
2023-10-13T20:05:48.617Z,19.50
2023-10-13T20:15:50.039Z,19.31
2023-10-13T20:25:53.903Z,19.19
2023-10-13T20:35:56.588Z,19.03
2023-10-13T20:46:02.828Z,18.90
2023-10-13T20:56:06.223Z,18.83
2023-10-13T21:06:11.807Z,18.73
2023-10-13T21:16:13.419Z,18.74
2023-10-13T21:26:22.947Z,18.71
2023-10-13T21:36:28.470Z,18.55
2023-10-13T21:46:30.913Z,18.46
2023-10-13T21:56:32.911Z,18.40
2023-10-13T22:06:36.689Z,18.44
2023-10-13T22:16:39.608Z,18.44
2023-10-13T22:26:41.023Z,18.43
2023-10-13T22:36:55.200Z,18.44
2023-10-13T22:47:01.619Z,18.48
2023-10-13T22:57:05.669Z,18.48
2023-10-13T23:07:18.139Z,18.50
2023-10-13T23:27:23.316Z,18.59
2023-10-13T23:37:31.782Z,18.56
2023-10-13T23:47:33.411Z,18.59
2023-10-13T23:57:38.343Z,18.64
